Flagg Spring, Kentucky
Current Conditions -  °F | °C
As of 2:53 AM on Wednesday 22 Oct 2014 (Local Time) from KLUK Reporting Station
Overcast Overcast  
Wind Chill: 43°   Ceiling: 3800
Heat Index: 47°   Visibility: 10mi
Dew Point: 36°   Wind: 8mph
Humidity: 66%   Direction: 10°N
Pressure: 30.2"   Gusts: NA
Location:  38.8948°N, 84.2968°W
Report Text: KLUK 220653Z AUTO 01007KT 10SM OVC038 08/02 A3020 RMK AO2 SLP227 T00830022
Loading
Personal Weather Stations






























Interactive Weather Map
Tropical Storm Tracking
New forecast layout! Learn more

10-Day Weather Forecast

Advertisements
Track Severe Weather on mobile